Time;durP1;ratioP1;P1;durP2;ratioP2;P2;SDS_P1;SDS_P2;PMS_P1;PMS_P2;Temp;Humidity;BMP_temperature;BMP_pressure;BME280_temperature;BME280_humidity;BME280_pressure;Samples;Min_cycle;Max_cycle;Signal;HPM_P1;HPM_P2
2022/05/16 00:00:34;;;;;;;13.32;4.15;;;14.10;99.90;;;;;;5084770;28;20037;-87
2022/05/16 00:03:01;;;;;;;7.20;3.45;;;14.10;99.90;;;;;;5073861;28;20101;-87
2022/05/16 00:05:27;;;;;;;9.60;3.83;;;14.10;99.90;;;;;;5072226;28;20041;-89
2022/05/16 00:07:53;;;;;;;11.75;4.30;;;14.10;99.90;;;;;;5073774;28;20054;-88
2022/05/16 00:10:22;;;;;;;11.48;3.83;;;14.10;99.90;;;;;;5073066;28;20044;-88
2022/05/16 00:12:48;;;;;;;12.35;4.20;;;14.10;99.90;;;;;;5068648;28;20137;-86
2022/05/16 00:15:23;;;;;;;13.40;4.22;;;14.10;99.90;;;;;;5074977;28;20449;-86
2022/05/16 00:17:48;;;;;;;12.23;4.13;;;14.20;99.90;;;;;;5072926;28;20533;-85
2022/05/16 00:20:20;;;;;;;13.18;3.80;;;14.20;99.90;;;;;;5068417;28;20117;-87
2022/05/16 00:22:46;;;;;;;10.85;3.97;;;14.20;99.90;;;;;;5073698;28;20040;-86
2022/05/16 00:25:15;;;;;;;9.77;4.13;;;14.20;99.90;;;;;;5073421;28;20044;-86
2022/05/16 00:27:41;;;;;;;11.82;4.60;;;14.20;99.90;;;;;;5074206;28;20059;-86
2022/05/16 00:30:09;;;;;;;11.15;4.45;;;14.20;99.90;;;;;;5072539;28;20040;-88
2022/05/16 00:32:38;;;;;;;11.52;4.05;;;14.20;99.90;;;;;;5071638;28;20484;-86
2022/05/16 00:35:08;;;;;;;10.18;4.35;;;14.20;99.90;;;;;;5087457;28;20076;-88
2022/05/16 00:37:34;;;;;;;12.60;4.88;;;14.20;99.90;;;;;;5074090;28;20476;-87
2022/05/16 00:39:59;;;;;;;12.18;3.45;;;14.20;99.90;;;;;;5077991;28;20063;-86
2022/05/16 00:42:25;;;;;;;6.88;3.60;;;14.30;99.90;;;;;;5083356;28;20350;-87
2022/05/16 00:44:51;;;;;;;8.60;4.05;;;14.20;99.90;;;;;;5072481;28;20086;-86
2022/05/16 00:47:16;;;;;;;10.65;4.15;;;14.20;99.90;;;;;;5072086;28;20087;-87
2022/05/16 00:49:46;;;;;;;10.23;3.30;;;14.30;99.90;;;;;;5071926;28;20109;-87
2022/05/16 00:52:19;;;;;;;7.90;3.40;;;14.30;99.90;;;;;;5072355;28;20060;-85
2022/05/16 00:54:55;;;;;;;13.32;4.40;;;14.30;99.90;;;;;;5088615;28;20048;-88
2022/05/16 00:57:25;;;;;;;9.95;3.90;;;14.30;99.90;;;;;;5092964;28;20048;-87
2022/05/16 01:00:06;;;;;;;9.52;3.80;;;14.20;99.90;;;;;;5068868;28;20041;-86
2022/05/16 01:05:19;;;;;;;6.97;3.15;;;14.20;99.90;;;;;;5052386;28;20360;-84
2022/05/16 01:07:45;;;;;;;11.55;3.63;;;14.30;99.90;;;;;;5045775;28;20480;-86
2022/05/16 01:10:15;;;;;;;7.93;3.88;;;14.20;99.90;;;;;;5045459;28;20049;-86
2022/05/16 01:12:43;;;;;;;7.47;3.45;;;14.20;99.90;;;;;;5084306;28;20047;-87
2022/05/16 01:15:16;;;;;;;8.73;3.10;;;14.20;99.90;;;;;;5053711;28;20045;-87
2022/05/16 01:17:44;;;;;;;6.95;3.13;;;14.20;99.90;;;;;;5053885;28;20050;-87
2022/05/16 01:20:10;;;;;;;8.45;3.30;;;14.20;99.90;;;;;;5059788;28;20153;-88
2022/05/16 01:22:43;;;;;;;8.23;3.30;;;14.20;99.90;;;;;;5079785;28;20040;-87
2022/05/16 01:25:09;;;;;;;9.02;2.90;;;14.20;99.90;;;;;;5078475;28;20040;-87
2022/05/16 01:27:50;;;;;;;5.47;2.95;;;14.20;99.90;;;;;;5071807;28;20408;-86
2022/05/16 01:30:20;;;;;;;8.25;3.00;;;14.20;99.90;;;;;;5095546;28;20052;-83
2022/05/16 01:32:45;;;;;;;5.07;2.47;;;14.20;99.90;;;;;;5052307;28;20045;-87
2022/05/16 01:35:12;;;;;;;7.28;3.13;;;14.10;99.90;;;;;;5063991;28;20123;-87
2022/05/16 01:40:23;;;;;;;6.65;2.30;;;14.20;99.90;;;;;;5085489;28;20049;-87
2022/05/16 01:42:48;;;;;;;5.97;2.45;;;14.10;99.90;;;;;;5075865;28;20043;-85
2022/05/16 01:45:15;;;;;;;5.50;2.30;;;14.00;99.90;;;;;;5090495;28;20119;-85
2022/05/16 01:47:40;;;;;;;5.32;2.20;;;14.00;99.90;;;;;;5083157;28;20159;-87
2022/05/16 01:50:06;;;;;;;7.43;2.25;;;14.10;99.90;;;;;;5054694;28;20691;-88
2022/05/16 01:52:32;;;;;;;6.13;2.20;;;14.00;99.90;;;;;;5049837;28;20087;-86
2022/05/16 01:54:57;;;;;;;4.50;2.03;;;14.00;99.90;;;;;;5049331;28;20045;-85
2022/05/16 01:57:23;;;;;;;6.43;2.00;;;14.00;99.90;;;;;;5067631;28;20041;-86
2022/05/16 01:59:48;;;;;;;6.05;2.00;;;13.90;99.90;;;;;;5034831;28;20479;-86
2022/05/16 02:02:14;;;;;;;5.15;2.90;;;13.90;99.90;;;;;;5048078;28;20053;-84
2022/05/16 02:04:40;;;;;;;7.68;1.80;;;13.90;99.90;;;;;;5053156;28;20113;-85
2022/05/16 02:07:05;;;;;;;5.53;2.20;;;13.90;99.90;;;;;;5051482;28;20075;-86
2022/05/16 02:09:31;;;;;;;6.35;2.22;;;13.90;99.90;;;;;;5049703;28;20048;-86
2022/05/16 02:11:56;;;;;;;5.57;1.80;;;13.90;99.90;;;;;;5049863;28;20491;-87
2022/05/16 02:14:23;;;;;;;3.33;1.60;;;13.80;99.90;;;;;;5048057;28;20045;-87
2022/05/16 02:16:49;;;;;;;5.07;1.80;;;14.00;99.90;;;;;;5068206;28;20202;-87
2022/05/16 02:19:15;;;;;;;3.70;1.50;;;13.80;99.90;;;;;;5050357;28;20156;-86
2022/05/16 02:24:42;;;;;;;5.30;1.98;;;13.80;99.90;;;;;;5064459;28;20409;-88
2022/05/16 02:27:09;;;;;;;4.80;1.65;;;13.70;99.90;;;;;;5051001;28;20148;-89
2022/05/16 02:29:35;;;;;;;7.75;1.75;;;13.70;99.90;;;;;;5069509;28;20090;-86
2022/05/16 02:32:02;;;;;;;4.20;1.50;;;13.70;99.90;;;;;;5048452;28;20036;-86
2022/05/16 02:34:27;;;;;;;4.75;1.80;;;13.70;99.90;;;;;;5052075;28;20076;-85
2022/05/16 02:36:53;;;;;;;3.42;1.58;;;13.70;99.90;;;;;;5049691;28;20102;-87
2022/05/16 02:39:19;;;;;;;3.58;1.70;;;13.70;99.90;;;;;;5067974;28;20051;-88
2022/05/16 02:41:45;;;;;;;3.63;1.67;;;13.60;99.90;;;;;;5050374;28;20064;-88
2022/05/16 02:44:12;;;;;;;6.65;2.08;;;13.60;99.90;;;;;;5045383;28;20140;-87
2022/05/16 02:46:38;;;;;;;4.55;1.73;;;13.60;99.90;;;;;;5050465;28;20052;-86
2022/05/16 02:49:04;;;;;;;6.72;2.10;;;13.60;99.90;;;;;;5050644;28;20362;-85
2022/05/16 02:51:30;;;;;;;4.82;1.88;;;13.60;99.90;;;;;;5069694;28;20059;-86
2022/05/16 02:53:56;;;;;;;7.05;1.83;;;13.60;99.90;;;;;;5048953;28;20040;-87
2022/05/16 02:56:22;;;;;;;6.95;1.70;;;13.60;99.90;;;;;;5048200;28;20396;-87
2022/05/16 02:58:47;;;;;;;3.58;1.60;;;13.60;99.90;;;;;;5033565;28;20175;-89
2022/05/16 03:01:13;;;;;;;5.55;1.77;;;13.50;99.90;;;;;;5051510;28;20037;-89
2022/05/16 03:03:40;;;;;;;3.92;1.52;;;13.50;99.90;;;;;;5048345;28;21761;-86
2022/05/16 03:06:07;;;;;;;3.85;1.60;;;13.50;99.90;;;;;;5068651;28;20051;-85
2022/05/16 03:08:33;;;;;;;4.10;1.95;;;13.50;99.90;;;;;;5051492;28;20059;-86
2022/05/16 03:10:58;;;;;;;7.22;2.80;;;13.50;99.90;;;;;;5048879;28;20052;-88
2022/05/16 03:13:24;;;;;;;6.30;1.77;;;13.50;99.90;;;;;;5069437;28;20044;-87
2022/05/16 03:15:50;;;;;;;4.20;1.80;;;13.50;99.90;;;;;;5058929;28;20283;-87
2022/05/16 03:18:16;;;;;;;5.00;1.70;;;13.50;99.90;;;;;;5052559;28;20476;-88
2022/05/16 03:20:42;;;;;;;3.88;1.70;;;13.50;99.90;;;;;;5073600;28;20498;-88
2022/05/16 03:23:08;;;;;;;4.65;1.85;;;13.50;99.90;;;;;;5053820;28;20036;-88
2022/05/16 03:25:34;;;;;;;4.38;1.70;;;13.40;99.90;;;;;;5052075;28;20486;-87
2022/05/16 03:28:00;;;;;;;3.58;1.50;;;13.40;99.90;;;;;;5078234;28;20088;-87
2022/05/16 03:30:26;;;;;;;3.90;1.35;;;13.40;99.90;;;;;;5057788;28;20036;-86
2022/05/16 03:32:51;;;;;;;4.88;1.70;;;13.40;99.90;;;;;;5044604;28;20127;-86
2022/05/16 03:35:17;;;;;;;6.88;1.85;;;13.40;99.90;;;;;;5057530;28;20036;-90
2022/05/16 03:37:43;;;;;;;3.70;1.80;;;13.40;99.90;;;;;;5057304;28;20044;-86
2022/05/16 03:42:53;;;;;;;3.42;1.70;;;13.30;99.90;;;;;;5055155;28;20044;-88
2022/05/16 03:45:19;;;;;;;5.28;2.05;;;13.30;99.90;;;;;;5076012;28;20119;-87
2022/05/16 03:47:45;;;;;;;9.10;2.42;;;13.30;99.90;;;;;;5074389;28;20108;-87
2022/05/16 03:50:11;;;;;;;3.72;1.55;;;13.30;99.90;;;;;;5056673;28;20401;-86
2022/05/16 03:52:38;;;;;;;7.15;1.92;;;13.30;99.90;;;;;;5072132;28;20055;-86
2022/05/16 03:55:06;;;;;;;6.00;2.00;;;13.30;99.90;;;;;;5077443;28;20094;-88
2022/05/16 03:57:32;;;;;;;3.22;2.20;;;13.20;99.90;;;;;;5093965;28;20035;-87
2022/05/16 03:59:57;;;;;;;9.85;1.73;;;13.20;99.90;;;;;;5094624;28;20116;-87
2022/05/16 04:02:23;;;;;;;4.70;1.70;;;13.20;99.90;;;;;;5075210;28;20051;-88
2022/05/16 04:04:48;;;;;;;5.25;1.80;;;13.20;99.90;;;;;;5096126;28;20044;-88
2022/05/16 04:07:14;;;;;;;6.10;1.80;;;13.20;99.90;;;;;;5095695;28;20058;-85
2022/05/16 04:09:40;;;;;;;8.50;2.70;;;13.10;99.90;;;;;;5096436;28;20147;-86
2022/05/16 04:12:06;;;;;;;3.13;1.65;;;13.10;99.90;;;;;;5077378;28;20428;-87
2022/05/16 04:14:32;;;;;;;3.55;1.90;;;13.10;99.90;;;;;;5078127;28;20135;-88
2022/05/16 04:16:58;;;;;;;4.43;1.60;;;13.20;99.90;;;;;;5094863;28;20455;-87
2022/05/16 04:19:25;;;;;;;5.63;1.83;;;13.10;99.90;;;;;;5096436;28;20090;-87
2022/05/16 04:21:51;;;;;;;6.70;1.90;;;13.10;99.90;;;;;;5095516;28;20109;-86
2022/05/16 04:24:17;;;;;;;5.03;1.90;;;13.10;99.90;;;;;;5095606;28;20499;-87
2022/05/16 04:26:42;;;;;;;3.75;1.80;;;13.10;99.90;;;;;;5077190;28;20132;-88
2022/05/16 04:29:08;;;;;;;4.18;1.70;;;13.10;99.90;;;;;;5094495;28;20444;-86
2022/05/16 04:31:33;;;;;;;7.45;2.00;;;13.10;99.90;;;;;;5076149;28;20052;-87
2022/05/16 04:33:59;;;;;;;5.20;1.92;;;13.20;99.90;;;;;;5076501;28;20254;-88
2022/05/16 04:36:25;;;;;;;4.10;1.73;;;13.20;99.90;;;;;;5077671;28;20134;-88
2022/05/16 04:38:51;;;;;;;5.75;2.17;;;13.20;99.90;;;;;;5076524;28;20112;-88
2022/05/16 04:44:01;;;;;;;6.75;2.25;;;13.20;99.90;;;;;;5092439;28;20044;-86
2022/05/16 04:46:26;;;;;;;4.45;1.95;;;13.20;99.90;;;;;;5076012;28;20037;-88
2022/05/16 04:48:52;;;;;;;4.85;1.63;;;13.20;99.90;;;;;;5078432;28;20048;-88
2022/05/16 04:51:17;;;;;;;5.40;2.13;;;13.30;99.90;;;;;;5100341;28;20135;-90
2022/05/16 04:53:43;;;;;;;4.20;2.03;;;13.30;99.90;;;;;;5069976;28;20048;-88
2022/05/16 04:56:09;;;;;;;4.05;1.77;;;13.20;99.90;;;;;;5087550;28;20055;-87
2022/05/16 04:58:35;;;;;;;4.30;2.00;;;13.30;99.90;;;;;;5072894;28;20036;-87
2022/05/16 05:01:02;;;;;;;4.78;1.92;;;13.40;99.90;;;;;;5093977;28;20080;-86
2022/05/16 05:03:28;;;;;;;7.22;1.92;;;13.40;99.90;;;;;;5092371;28;20043;-86
2022/05/16 05:05:54;;;;;;;5.50;1.73;;;13.40;99.90;;;;;;5073585;28;20054;-85
2022/05/16 05:08:23;;;;;;;7.00;2.30;;;13.40;99.90;;;;;;5078530;28;20400;-87
2022/05/16 05:16:20;;;;;;;8.48;2.15;;;13.40;99.90;;;;;;5072497;28;20044;-88
2022/05/16 05:18:50;;;;;;;3.75;1.60;;;13.50;99.90;;;;;;5073566;28;20197;-87
2022/05/16 05:21:15;;;;;;;8.75;2.53;;;13.50;99.90;;;;;;5073359;28;20188;-88
2022/05/16 05:23:41;;;;;;;6.05;1.95;;;13.60;99.90;;;;;;5074268;28;20098;-89
2022/05/16 05:26:09;;;;;;;6.50;1.83;;;13.60;99.90;;;;;;5074262;28;20636;-88
2022/05/16 05:28:34;;;;;;;5.20;1.83;;;13.60;99.90;;;;;;5074115;28;20120;-90
2022/05/16 05:31:01;;;;;;;5.63;1.90;;;13.60;99.90;;;;;;5074388;28;20510;-85
2022/05/16 05:33:27;;;;;;;5.18;1.80;;;13.70;99.90;;;;;;5077877;28;20032;-84
2022/05/16 05:35:52;;;;;;;7.82;2.15;;;13.70;99.90;;;;;;5093074;28;20048;-87
2022/05/16 05:38:18;;;;;;;6.32;2.20;;;13.70;99.90;;;;;;5090662;28;20044;-87
2022/05/16 05:40:45;;;;;;;18.50;2.40;;;13.80;99.90;;;;;;5090372;28;20127;-84
2022/05/16 05:43:10;;;;;;;6.18;2.03;;;13.80;99.90;;;;;;5069295;28;20048;-75
2022/05/16 05:45:37;;;;;;;3.63;1.70;;;13.80;99.90;;;;;;5089544;28;20070;-75
2022/05/16 05:48:04;;;;;;;4.50;1.88;;;13.80;99.90;;;;;;5070096;28;20181;-75
2022/05/16 05:50:30;;;;;;;4.25;2.05;;;13.80;99.90;;;;;;5089231;28;20043;-75
2022/05/16 05:52:56;;;;;;;7.93;2.47;;;13.90;99.90;;;;;;5089165;28;20472;-75
2022/05/16 05:55:22;;;;;;;6.18;2.20;;;13.90;99.90;;;;;;5070865;28;20143;-75
2022/05/16 05:57:47;;;;;;;7.80;2.40;;;14.00;99.90;;;;;;5088984;28;20492;-75
2022/05/16 06:00:14;;;;;;;3.75;1.55;;;14.00;99.90;;;;;;5088611;28;20111;-75
2022/05/16 06:02:41;;;;;;;6.40;2.05;;;14.00;99.90;;;;;;5088182;28;20108;-75
2022/05/16 06:05:13;;;;;;;5.22;1.77;;;14.00;99.90;;;;;;5069971;28;20130;-76
2022/05/16 06:07:40;;;;;;;8.50;2.45;;;14.10;99.90;;;;;;5071345;28;20636;-76
2022/05/16 06:10:06;;;;;;;3.28;1.80;;;14.10;99.90;;;;;;5086621;28;20044;-75
2022/05/16 06:12:32;;;;;;;9.73;2.78;;;14.10;99.90;;;;;;5085713;28;20090;-75
2022/05/16 06:14:58;;;;;;;10.90;2.28;;;14.10;99.90;;;;;;5085415;28;20691;-75
2022/05/16 06:17:24;;;;;;;7.88;2.10;;;14.10;99.90;;;;;;5087242;28;20400;-75
2022/05/16 06:19:50;;;;;;;10.35;2.47;;;14.20;99.90;;;;;;5087281;28;20036;-75
2022/05/16 06:22:16;;;;;;;6.25;2.42;;;14.20;99.90;;;;;;5088428;28;20055;-75
2022/05/16 06:27:29;;;;;;;8.63;2.20;;;14.30;99.90;;;;;;5088589;28;20130;-75
2022/05/16 06:29:59;;;;;;;8.00;2.30;;;14.30;99.90;;;;;;5088281;28;20050;-75
2022/05/16 06:32:25;;;;;;;5.00;2.20;;;14.30;99.90;;;;;;5070703;28;20036;-75
2022/05/16 06:34:51;;;;;;;8.45;2.85;;;14.30;99.90;;;;;;5088735;28;20403;-75
2022/05/16 06:37:18;;;;;;;8.55;2.80;;;14.40;99.90;;;;;;5068441;28;20044;-75
2022/05/16 06:39:45;;;;;;;6.53;2.30;;;14.40;99.90;;;;;;5069617;28;20044;-76
2022/05/16 06:42:11;;;;;;;7.55;2.35;;;14.40;99.90;;;;;;5050545;28;20049;-78
2022/05/16 06:44:36;;;;;;;15.85;3.28;;;14.50;99.90;;;;;;5062518;28;20044;-74
2022/05/16 06:47:02;;;;;;;5.82;2.33;;;14.60;99.90;;;;;;5070709;28;20048;-74
2022/05/16 06:49:28;;;;;;;10.27;2.50;;;14.60;99.90;;;;;;5087968;28;20119;-74
2022/05/16 06:51:53;;;;;;;8.40;2.35;;;14.70;99.90;;;;;;5088218;28;20056;-76
2022/05/16 06:54:19;;;;;;;6.95;2.53;;;14.70;99.90;;;;;;5069120;28;20364;-74
2022/05/16 06:56:45;;;;;;;9.57;2.38;;;14.80;99.90;;;;;;5088260;28;20047;-74
2022/05/16 06:59:10;;;;;;;7.07;2.30;;;14.90;99.90;;;;;;5067810;28;20048;-75
2022/05/16 07:01:37;;;;;;;13.35;3.22;;;15.00;99.90;;;;;;5089329;28;20080;-74
2022/05/16 07:04:04;;;;;;;6.57;2.38;;;15.10;99.90;;;;;;5087531;28;20140;-74
2022/05/16 07:06:30;;;;;;;7.55;2.40;;;15.20;99.90;;;;;;5069709;28;20082;-75
2022/05/16 07:08:56;;;;;;;10.57;2.40;;;15.30;99.90;;;;;;5067495;28;20080;-76
2022/05/16 07:11:21;;;;;;;8.77;2.30;;;15.40;99.90;;;;;;5070567;28;20043;-75
2022/05/16 07:13:47;;;;;;;7.55;2.38;;;15.60;99.90;;;;;;5086126;28;20131;-75
2022/05/16 07:16:13;;;;;;;14.00;3.13;;;15.50;99.90;;;;;;5070840;28;20055;-75
2022/05/16 07:18:38;;;;;;;6.80;2.50;;;15.70;99.90;;;;;;5069514;28;20059;-76
2022/05/16 07:21:05;;;;;;;7.00;2.60;;;15.70;99.90;;;;;;5065345;28;20044;-75
2022/05/16 07:23:30;;;;;;;7.85;2.90;;;15.80;99.90;;;;;;5069544;28;20075;-75
2022/05/16 07:28:40;;;;;;;9.20;2.42;;;15.90;99.90;;;;;;5084843;28;20449;-76
2022/05/16 07:31:07;;;;;;;8.75;2.15;;;15.90;99.90;;;;;;5088221;28;20059;-75
2022/05/16 07:33:34;;;;;;;9.85;2.90;;;16.00;99.90;;;;;;5086314;28;20074;-77
2022/05/16 07:36:00;;;;;;;10.60;2.63;;;16.10;99.90;;;;;;5088962;28;20048;-74
2022/05/16 07:38:26;;;;;;;6.93;2.30;;;16.10;99.90;;;;;;5087800;28;20081;-74
2022/05/16 07:40:52;;;;;;;8.90;2.30;;;16.20;99.90;;;;;;5087444;28;20086;-73
2022/05/16 07:43:18;;;;;;;9.48;3.28;;;16.30;99.90;;;;;;5066799;28;20055;-74
2022/05/16 07:45:45;;;;;;;7.07;2.15;;;16.40;99.90;;;;;;5065404;28;20071;-74
2022/05/16 07:48:12;;;;;;;11.98;3.10;;;16.50;99.90;;;;;;5086512;28;20055;-74
2022/05/16 07:50:38;;;;;;;10.73;3.00;;;16.60;99.90;;;;;;5086836;28;20039;-74
2022/05/16 07:53:11;;;;;;;12.38;2.35;;;16.70;99.90;;;;;;5068941;28;20055;-74
2022/05/16 07:55:41;;;;;;;12.02;2.20;;;16.80;99.90;;;;;;5068019;28;20040;-74
2022/05/16 07:58:07;;;;;;;7.22;2.58;;;16.90;99.90;;;;;;5052753;28;20044;-75
2022/05/16 08:00:33;;;;;;;6.38;2.05;;;16.90;99.90;;;;;;5087909;28;20054;-74
2022/05/16 08:02:59;;;;;;;8.68;2.38;;;17.10;99.90;;;;;;5068483;28;20055;-74
2022/05/16 08:05:25;;;;;;;12.23;2.63;;;17.10;99.90;;;;;;5070244;28;20059;-73
2022/05/16 08:10:29;;;;;;;8.32;2.17;;;17.20;99.90;;;;;;5091583;28;20048;-74
2022/05/16 08:10:42;;;;;;;9.32;2.33;;;17.30;99.90;;;;;;5091519;28;20123;-75
2022/05/16 08:13:10;;;;;;;10.05;2.55;;;17.40;99.90;;;;;;5072651;28;20201;-75
2022/05/16 08:15:38;;;;;;;15.55;2.45;;;17.70;99.90;;;;;;5072174;28;20059;-76
2022/05/16 08:18:05;;;;;;;7.43;2.50;;;17.60;99.90;;;;;;5073254;28;20494;-75
2022/05/16 08:20:33;;;;;;;7.22;2.30;;;17.70;99.90;;;;;;5091642;28;20135;-75
2022/05/16 08:22:58;;;;;;;6.78;2.72;;;17.80;99.90;;;;;;5090463;28;20043;-75
2022/05/16 08:25:24;;;;;;;10.23;2.20;;;17.90;99.90;;;;;;5089389;28;20067;-75
2022/05/16 08:27:51;;;;;;;9.30;2.50;;;17.90;99.90;;;;;;5090546;28;20476;-76
2022/05/16 08:30:19;;;;;;;7.53;2.85;;;18.00;99.90;;;;;;5090421;28;20405;-77
2022/05/16 08:32:45;;;;;;;7.10;2.80;;;18.10;99.90;;;;;;5073857;28;20384;-75
2022/05/16 08:35:12;;;;;;;6.70;2.03;;;18.20;99.90;;;;;;5087967;28;20055;-76
2022/05/16 08:40:34;;;;;;;13.05;3.13;;;18.40;99.80;;;;;;5089547;28;20044;-76
2022/05/16 08:43:16;;;;;;;9.95;2.80;;;18.50;99.50;;;;;;5090881;28;20051;-75
2022/05/16 08:45:49;;;;;;;6.60;2.55;;;18.60;99.40;;;;;;5076033;28;20044;-75
2022/05/16 08:48:21;;;;;;;7.75;2.55;;;18.70;99.20;;;;;;5069389;28;20044;-76
2022/05/16 08:50:56;;;;;;;9.73;2.20;;;18.70;99.10;;;;;;5090944;28;20044;-75
2022/05/16 08:53:32;;;;;;;7.50;2.20;;;18.90;98.90;;;;;;5072050;28;20101;-75
2022/05/16 08:56:02;;;;;;;11.48;2.80;;;19.00;98.80;;;;;;5090531;28;20093;-75
2022/05/16 08:58:33;;;;;;;8.85;2.67;;;19.10;98.80;;;;;;5065431;28;20116;-75
2022/05/16 09:00:59;;;;;;;;;;;19.30;98.80;;;;;;5065093;28;20040;-75
2022/05/16 09:03:43;;;;;;;8.40;2.60;;;19.30;98.80;;;;;;5091092;28;20022;-76
2022/05/16 09:06:17;;;;;;;11.75;2.60;;;19.40;98.70;;;;;;5071306;28;20186;-77
2022/05/16 09:08:55;;;;;;;9.05;2.50;;;19.50;98.40;;;;;;5070502;28;20119;-76
2022/05/16 09:12:02;;;;;;;5.85;1.77;;;19.70;98.20;;;;;;5089330;28;20040;-76
2022/05/16 09:14:39;;;;;;;6.60;2.20;;;19.80;98.20;;;;;;5090025;28;20047;-76
2022/05/16 09:17:28;;;;;;;11.55;2.72;;;19.90;97.80;;;;;;5072447;28;20040;-76
2022/05/16 09:20:01;;;;;;;8.93;2.60;;;20.10;97.90;;;;;;5088141;28;20044;-77
2022/05/16 09:22:35;;;;;;;9.38;2.25;;;20.20;97.60;;;;;;5075754;28;20418;-77
2022/05/16 09:25:08;;;;;;;9.20;2.45;;;20.20;97.20;;;;;;5084632;28;20108;-75
2022/05/16 09:30:25;;;;;;;10.35;2.53;;;20.30;96.40;;;;;;5090006;28;20044;-75
2022/05/16 09:33:17;;;;;;;6.63;2.03;;;20.40;96.00;;;;;;5070289;28;20056;-75
2022/05/16 09:35:51;;;;;;;7.30;2.20;;;20.40;95.60;;;;;;5070945;28;20476;-75
2022/05/16 09:38:18;;;;;;;17.85;2.55;;;20.40;95.40;;;;;;5069561;28;20051;-75
2022/05/16 09:40:59;;;;;;;10.18;2.08;;;20.40;95.20;;;;;;5088538;28;20079;-76
2022/05/16 09:43:27;;;;;;;9.65;2.55;;;20.50;95.20;;;;;;5087134;28;20201;-75
2022/05/16 09:46:26;;;;;;;14.25;2.40;;;20.50;95.10;;;;;;5071023;28;20036;-75
2022/05/16 09:49:02;;;;;;;9.35;2.17;;;20.60;95.20;;;;;;5071028;28;20043;-75
2022/05/16 09:51:30;;;;;;;12.52;2.20;;;20.60;95.10;;;;;;5069138;28;20392;-75
2022/05/16 09:54:15;;;;;;;8.18;2.30;;;20.60;95.00;;;;;;5048431;28;20049;-76
2022/05/16 09:57:08;;;;;;;9.88;2.20;;;20.60;95.20;;;;;;5040592;28;20088;-75
2022/05/16 09:59:48;;;;;;;10.18;2.55;;;20.70;95.10;;;;;;5031481;28;20049;-75
2022/05/16 10:02:35;;;;;;;14.82;2.33;;;20.80;94.70;;;;;;5049270;28;20060;-74
2022/05/16 10:05:02;;;;;;;11.35;3.08;;;20.90;94.50;;;;;;5049567;28;20488;-75
2022/05/16 10:07:43;;;;;;;10.93;2.08;;;21.00;94.30;;;;;;5050233;28;20575;-75
2022/05/16 10:10:19;;;;;;;11.07;2.83;;;21.10;94.10;;;;;;5069302;28;20427;-75
2022/05/16 10:12:46;;;;;;;9.02;2.15;;;21.20;93.70;;;;;;5068980;28;20041;-75
2022/05/16 10:15:13;;;;;;;10.77;2.05;;;21.20;93.30;;;;;;5049720;28;20392;-74
2022/05/16 10:17:42;;;;;;;14.02;2.75;;;21.30;92.70;;;;;;5052497;28;20500;-76
2022/05/16 10:20:14;;;;;;;9.05;2.97;;;21.40;92.50;;;;;;5059911;28;20036;-74
2022/05/16 10:22:40;;;;;;;7.95;2.58;;;21.60;92.10;;;;;;5052771;28;20049;-75
2022/05/16 10:25:21;;;;;;;15.93;2.80;;;21.70;92.00;;;;;;5061913;28;20047;-75
2022/05/16 10:27:50;;;;;;;8.25;1.95;;;21.90;91.60;;;;;;5038439;28;20048;-75
2022/05/16 10:30:25;;;;;;;9.35;2.45;;;22.00;91.60;;;;;;5061652;28;20111;-75
2022/05/16 10:35:51;;;;;;;6.72;2.42;;;22.30;90.80;;;;;;5059980;28;20041;-75
2022/05/16 10:38:40;;;;;;;7.38;2.78;;;22.50;90.10;;;;;;5053567;28;20448;-75
2022/05/16 10:41:13;;;;;;;12.13;3.15;;;22.70;89.40;;;;;;5038329;28;20041;-75
2022/05/16 10:44:01;;;;;;;9.55;2.47;;;22.70;87.50;;;;;;5066753;28;20052;-76
2022/05/16 10:46:31;;;;;;;7.00;2.45;;;22.80;86.70;;;;;;5043679;28;20395;-75
2022/05/16 10:49:19;;;;;;;9.85;2.30;;;23.00;85.60;;;;;;5053644;28;20048;-75
2022/05/16 10:51:50;;;;;;;5.70;2.42;;;23.00;85.60;;;;;;5033653;28;20044;-75
2022/05/16 10:54:20;;;;;;;11.85;3.40;;;23.10;84.40;;;;;;5063834;28;20203;-75
2022/05/16 10:57:07;;;;;;;6.22;2.35;;;23.10;84.00;;;;;;5060495;28;20401;-76
2022/05/16 10:59:59;;;;;;;9.80;3.28;;;23.30;83.70;;;;;;5066027;28;20071;-75
2022/05/16 11:02:50;;;;;;;10.90;2.70;;;23.50;83.90;;;;;;5032872;28;20056;-76
2022/05/16 11:05:27;;;;;;;8.18;2.47;;;23.60;81.60;;;;;;5045555;28;20144;-75
2022/05/16 11:08:25;;;;;;;4.50;2.08;;;23.70;81.90;;;;;;5046873;28;20101;-75
2022/05/16 11:11:10;;;;;;;12.60;2.53;;;23.90;82.00;;;;;;5069218;28;20105;-76
2022/05/16 11:13:51;;;;;;;8.65;2.50;;;24.00;80.90;;;;;;5065795;28;20109;-76
2022/05/16 11:16:20;;;;;;;13.50;3.00;;;24.00;79.20;;;;;;5066177;28;20044;-74
2022/05/16 11:19:07;;;;;;;13.95;2.25;;;24.10;76.90;;;;;;5048552;28;20051;-76
2022/05/16 11:22:09;;;;;;;20.55;2.88;;;24.10;75.10;;;;;;5049688;28;20036;-75
2022/05/16 11:24:48;;;;;;;11.23;3.08;;;24.20;76.30;;;;;;5069113;28;20059;-76
2022/05/16 11:27:31;;;;;;;4.63;2.25;;;24.20;76.00;;;;;;5048752;28;20090;-75
2022/05/16 11:30:25;;;;;;;11.85;3.25;;;24.20;75.60;;;;;;5065047;28;20511;-77
2022/05/16 11:33:07;;;;;;;8.07;2.08;;;24.20;75.00;;;;;;5002436;28;20057;-76
2022/05/16 11:35:39;;;;;;;5.95;2.33;;;24.20;74.70;;;;;;5022122;28;20088;-76
2022/05/16 11:38:07;;;;;;;10.43;2.80;;;24.20;74.80;;;;;;5045985;28;20085;-75
2022/05/16 11:40:54;;;;;;;9.88;2.65;;;24.20;73.80;;;;;;5070268;28;20136;-76
2022/05/16 11:43:36;;;;;;;13.27;2.88;;;24.10;73.80;;;;;;5052432;28;20048;-76
2022/05/16 11:46:40;;;;;;;6.72;2.42;;;24.10;72.70;;;;;;5068634;28;20408;-75
2022/05/16 11:49:22;;;;;;;9.38;2.47;;;24.10;73.50;;;;;;5045827;28;20464;-75
2022/05/16 11:52:00;;;;;;;9.82;2.20;;;24.00;72.20;;;;;;5072584;28;20423;-75
2022/05/16 11:54:31;;;;;;;8.05;2.28;;;24.00;71.70;;;;;;5092036;28;20382;-74
2022/05/16 12:03:00;;;;;;;7.22;2.13;;;24.10;71.70;;;;;;5090322;28;20040;-75
2022/05/16 12:05:26;;;;;;;5.38;2.03;;;24.10;72.00;;;;;;5057560;28;20534;-76
2022/05/16 12:08:33;;;;;;;7.40;2.25;;;24.10;71.70;;;;;;5053448;28;20053;-76
2022/05/16 12:11:04;;;;;;;13.40;2.50;;;24.10;71.80;;;;;;5072326;28;20058;-75
2022/05/16 12:13:33;;;;;;;7.20;2.33;;;24.10;72.40;;;;;;5057312;28;20043;-75
2022/05/16 12:16:27;;;;;;;7.90;2.78;;;24.10;72.10;;;;;;5089678;28;20158;-75
2022/05/16 12:19:15;;;;;;;10.32;2.33;;;24.10;72.40;;;;;;5091743;28;20038;-75
2022/05/16 12:21:40;;;;;;;10.63;2.35;;;24.10;73.10;;;;;;5072983;28;20135;-76
2022/05/16 12:24:27;;;;;;;10.23;2.72;;;24.10;73.40;;;;;;5091157;28;20151;-75
2022/05/16 12:27:04;;;;;;;7.03;2.58;;;24.10;73.30;;;;;;5073338;28;20040;-75
2022/05/16 12:29:42;;;;;;;10.70;2.60;;;24.10;74.00;;;;;;5090200;28;20131;-76
2022/05/16 12:32:08;;;;;;;9.35;2.75;;;24.20;73.10;;;;;;5071971;28;20067;-75
2022/05/16 12:34:35;;;;;;;11.25;2.65;;;24.20;72.90;;;;;;5073172;28;20105;-75
2022/05/16 12:37:05;;;;;;;8.10;2.90;;;24.30;72.80;;;;;;5072801;28;20056;-75
2022/05/16 12:39:34;;;;;;;;;;;24.20;72.70;;;;;;5072880;28;20051;-76
2022/05/16 12:42:20;;;;;;;10.32;2.53;;;24.20;73.30;;;;;;5089164;28;19920;-75
2022/05/16 12:44:58;;;;;;;9.23;2.45;;;24.20;73.00;;;;;;5069161;28;20048;-75
2022/05/16 12:47:45;;;;;;;9.88;2.63;;;24.20;73.10;;;;;;5090836;28;20063;-75
2022/05/16 12:50:32;;;;;;;9.63;2.38;;;24.20;73.30;;;;;;5076307;28;20125;-76
2022/05/16 12:53:16;;;;;;;13.10;3.75;;;24.20;73.50;;;;;;5072775;28;20466;-75
2022/05/16 12:55:45;;;;;;;15.02;3.30;;;24.20;73.50;;;;;;5090999;28;20368;-75
2022/05/16 12:58:40;;;;;;;9.00;2.88;;;24.20;73.30;;;;;;5071260;28;20051;-75
2022/05/16 13:01:17;;;;;;;12.55;3.25;;;24.20;73.00;;;;;;5001008;28;20580;-75
2022/05/16 13:03:50;;;;;;;10.70;2.55;;;24.10;73.00;;;;;;5090481;28;20102;-75
2022/05/16 13:06:31;;;;;;;8.88;2.65;;;24.10;73.50;;;;;;5072223;28;20304;-75
2022/05/16 13:09:16;;;;;;;13.55;4.05;;;24.10;73.20;;;;;;5091190;28;20075;-75
2022/05/16 13:12:00;;;;;;;12.27;2.80;;;24.10;73.00;;;;;;5089813;28;20467;-75
2022/05/16 13:14:38;;;;;;;13.70;3.78;;;24.10;73.90;;;;;;5089801;28;20513;-76
2022/05/16 13:17:10;;;;;;;11.18;2.80;;;24.10;73.20;;;;;;5089007;28;20509;-76
2022/05/16 13:19:43;;;;;;;14.40;3.22;;;24.10;73.30;;;;;;5071882;28;20055;-75
2022/05/16 13:22:20;;;;;;;10.95;3.25;;;24.10;74.00;;;;;;5089672;28;20050;-76
2022/05/16 13:24:46;;;;;;;8.88;2.83;;;24.10;73.50;;;;;;5071065;28;20044;-75
2022/05/16 13:30:06;;;;;;;10.32;3.25;;;24.10;73.00;;;;;;5069046;28;20055;-75
2022/05/16 13:32:32;;;;;;;12.43;3.38;;;24.00;72.80;;;;;;5087715;28;20052;-75
2022/05/16 13:35:00;;;;;;;9.70;3.30;;;24.00;73.30;;;;;;5088662;28;20044;-76
2022/05/16 13:37:27;;;;;;;7.72;2.88;;;24.00;73.70;;;;;;5071801;28;20131;-75
2022/05/16 13:40:03;;;;;;;10.82;3.05;;;24.00;73.60;;;;;;5070912;28;20597;-75
2022/05/16 13:42:32;;;;;;;9.20;3.25;;;24.00;74.30;;;;;;5087894;28;20356;-75
2022/05/16 13:44:59;;;;;;;12.27;3.92;;;24.00;74.60;;;;;;5070835;28;20475;-75